• Join FlightAware (Why Join?)
  • Login
  • US Flag 
06:03AM EDT


 

Airport Tracker/Info


-or-


 

Live Flight TrackerFlight Track Log ✈ N900CB ✈ 10-May-2013 ✈ KMWC - KFCM

Flight Track Log - Related Links

Times and Time Zones

All times are in EDT time to prevent confusion due to time zone crossing. See the N900CB flight status page for this flight to view local times or setup timezone preferences in your user account.

Time Position Orientation Groundspeed Altitude Reporting Facility
EDT Latitude Longitude Course Direction KTS MPH feet Rate Location/Type
02:04PM 43.1167 -88.0333 36° Northeast 107 123 1,100  Level KMKE
02:05PM 43.1500 -88.0000 36° Northeast 121 139 2,000 960 Climbing KMKE
02:06PM 43.1589 -88.0256 296° West 138 159 3,000 900 Climbing Chicago Center
02:07PM 43.1644 -88.0792 278° West 142 163 3,900 900 Climbing Chicago Center
02:08PM 43.1683 -88.1378 275° West 148 170 4,900 960 Climbing Chicago Center
02:09PM 43.1833 -88.1892 292° West 146 168 6,000 1,080 Climbing Chicago Center
02:10PM 43.2128 -88.2356 311° West 139 160 7,200 1,080 Climbing Chicago Center
02:11PM 43.2378 -88.2756 311° West 138 159 8,300 960 Climbing Chicago Center
02:12PM 43.2647 -88.3156 313° West 140 161 9,200 900 Climbing Chicago Center
02:13PM 43.2933 -88.3539 316° Northwest 143 165 10,200 960 Climbing Chicago Center
02:14PM 43.3236 -88.3922 317° Northwest 148 170 11,200 900 Climbing Chicago Center
02:15PM 43.3467 -88.4489 299° West 151 174 12,100 840 Climbing Chicago Center
02:16PM 43.3644 -88.5044 294° West 155 178 13,000 780 Climbing Chicago Center
02:17PM 43.3842 -88.5597 296° West 158 182 13,800 420 Climbing Chicago Center
02:18PM 43.4042 -88.6236 293° West 178 205 13,900  Climbing Chicago Center
02:19PM 43.4258 -88.6883 295° West 185 213 13,900  Level Chicago Center
02:20PM 43.4469 -88.7533 294° West 184 212 13,900  Level Chicago Center
02:22PM 43.4678 -88.8169 294° West 183 211 13,900  Level Chicago Center
02:23PM 43.4894 -88.8825 295° West 186 214 14,000  Climbing Chicago Center
02:24PM 43.5139 -88.9558 295° West 182 209 14,000  Level Chicago Center
02:25PM 43.5353 -89.0197 295° West 183 211 14,000  Level Chicago Center
02:26PM 43.5567 -89.0869 294° West 188 216 14,000  Level Chicago Center
02:27PM 43.5761 -89.1536 292° West 188 216 14,000  Level Chicago Center
02:28PM 43.5958 -89.2197 292° West 187 215 14,000  Level Chicago Center
02:29PM 43.6211 -89.2967 294° West 186 214 14,000  Level Chicago Center
02:30PM 43.6422 -89.3628 294° West 188 216 14,000  Level Chicago Center
02:31PM 43.6625 -89.4292 293° West 188 216 14,000  Level Chicago Center
02:32PM 43.6833 -89.4967 293° West 189 217 14,000  Level Chicago Center
02:33PM 43.7033 -89.5642 292° West 190 219 14,000  Level Chicago Center
02:34PM 43.7294 -89.6431 295° West 192 221 14,000  Level Chicago Center
02:35PM 43.7508 -89.7111 294° West 192 221 14,000  Level Chicago Center
02:36PM 43.7733 -89.7775 295° West 192 221 14,000  Level Chicago Center
02:37PM 43.7942 -89.8456 293° West 191 220 14,000  Level Chicago Center
02:38PM 43.8158 -89.9136 294° West 192 221 14,000  Level Chicago Center
02:39PM 43.8392 -89.9925 292° West 191 220 14,000  Level Chicago Center
02:40PM 43.8608 -90.0606 294° West 192 221 14,000  Level Chicago Center
02:41PM 43.8803 -90.1283 292° West 191 220 14,000  Level Chicago Center
02:42PM 43.8994 -90.1975 291° West 191 220 14,000  Level Chicago Center
02:43PM 43.9200 -90.2642 293° West 190 219 14,000  Level Chicago Center
02:44PM 43.9397 -90.3286 293° West 188 216 14,000  Level Chicago Center
02:45PM 43.9461 -90.3483 294° West 185 213 14,000  Level Minneapolis Center
02:46PM 43.9708 -90.4356 292° West 187 215 14,000  Level Minneapolis Center
02:47PM 43.9911 -90.5036 293° West 184 212 14,000  Level Minneapolis Center
02:48PM 44.0117 -90.5689 294° West 189 217 14,000  Level Minneapolis Center
02:49PM 44.0331 -90.6378 293° West 187 215 14,000  Level Minneapolis Center
02:50PM 44.0544 -90.7075 293° West 188 216 14,000  Level Minneapolis Center
02:51PM 44.0750 -90.7775 292° West 186 214 14,000  Level Minneapolis Center
02:52PM 44.0931 -90.8486 289° West 188 216 14,000  Level Minneapolis Center
02:53PM 44.1106 -90.9200 289° West 187 215 14,000  Level Minneapolis Center
02:54PM 44.1289 -90.9908 290° West 187 215 14,000  Level Minneapolis Center
02:55PM 44.1444 -91.0569 288° West 187 215 14,000  Level Minneapolis Center
02:56PM 44.1614 -91.1283 288° West 187 215 14,000  Level Minneapolis Center
02:57PM 44.1822 -91.2167 288° West 186 214 14,000  Level Minneapolis Center
02:59PM 44.2014 -91.3000 288° West 187 215 14,000 -60 Level Minneapolis Center
03:00PM 44.2172 -91.3689 288° West 182 209 13,900 -480 Descending Minneapolis Center
03:01PM 44.2358 -91.4453 289° West 203 234 13,100 -780 Descending Minneapolis Center
03:02PM 44.2553 -91.5261 289° West 210 242 12,300 -840 Descending Minneapolis Center
03:03PM 44.2731 -91.6089 287° West 214 246 11,400 -900 Descending Minneapolis Center
03:04PM 44.2917 -91.6861 289° West 216 249 10,500 -900 Descending Minneapolis Center
03:05PM 44.3125 -91.7703 289° West 216 249 9,600 -840 Descending Minneapolis Center
03:06PM 44.3294 -91.8489 287° West 214 246 8,800 -840 Descending Minneapolis Center
03:07PM 44.3492 -91.9314 289° West 211 243 7,900 -780 Descending Minneapolis Center
03:08PM 44.3697 -92.0050 291° West 207 238 7,200 -780 Descending Minneapolis Center
03:09PM 44.3886 -92.0858 288° West 203 234 6,400 -780 Descending Minneapolis Center
03:10PM 44.4061 -92.1656 287° West 201 231 5,700 -660 Descending Minneapolis Center
03:11PM 44.4217 -92.2383 287° West 200 230 5,100 -600 Descending Minneapolis Center
03:12PM 44.4378 -92.3156 286° West 196 226 4,500 -540 Descending Minneapolis Center
03:13PM 44.4539 -92.3847 288° West 189 217 4,100 -420 Descending Minneapolis Center
03:14PM 44.4703 -92.4508 289° West 186 214 3,700 -240 Descending Minneapolis Center
03:15PM 44.4844 -92.5178 287° West 182 209 3,700 60 Level Minneapolis Center
03:16PM 44.4969 -92.5767 287° West 161 185 3,900 60 Climbing Minneapolis Center
03:17PM 44.5117 -92.6497 286° West 163 188 3,900  Level Minneapolis Center
03:18PM 44.5253 -92.7131 287° West 169 194 3,900  Level Minneapolis Center
03:19PM 44.5400 -92.7756 288° West 169 194 3,900 -180 Level Minneapolis Center
03:20PM 44.5547 -92.8397 288° West 172 198 3,600 -480 Descending Minneapolis Center
03:21PM 44.5708 -92.9100 288° West 188 216 3,000 -300 Descending Minneapolis Center
03:22PM 44.5861 -92.9758 288° West 179 206 3,000  Level Minneapolis Center
03:23PM 44.6053 -93.0475 291° West 165 190 3,000  Level Minneapolis Center
03:24PM 44.6336 -93.0978 308° West 165 190 3,000  Level Minneapolis Center
03:25PM 44.6608 -93.1481 307° West 162 186 3,000 -240 Level Minneapolis Center
03:26PM 44.6892 -93.1964 310° West 161 185 2,600 -300 Descending Minneapolis Center
03:27PM 44.7181 -93.2483 308° West 164 189 2,400 -60 Descending Minneapolis Center
03:28PM 44.7397 -93.2992 301° West 150 173 2,500  Climbing Minneapolis Center
03:30PM 44.7647 -93.3456 307° West 148 170 2,400 -300 Descending Minneapolis Center
03:31PM 44.7894 -93.3928 306° West 150 173 2,000 -300 Descending Minneapolis Center
03:32PM 44.8053 -93.4453 293° West 145 167 1,900 -300 Descending Minneapolis Center
03:33PM 44.8239 -93.4936 299° West 128 147 1,500 -540 Descending Minneapolis Center
03:34PM 44.8297 -93.4642 74° East 114 131 900 -600 Descending Minneapolis Center
03:36PM 44.8275 -93.4586 North  Level Estimated